createdAt,value
2022-09-12T00:02:42.958Z,13.52
2022-09-12T00:07:45.211Z,13.29
2022-09-12T00:12:46.922Z,13.19
2022-09-12T00:17:48.547Z,13.13
2022-09-12T00:22:50.177Z,13.03
2022-09-12T00:27:51.885Z,12.94
2022-09-12T00:32:54.728Z,12.73
2022-09-12T00:37:56.691Z,12.83
2022-09-12T00:42:59.048Z,12.82
2022-09-12T00:48:04.382Z,12.65
2022-09-12T00:53:07.994Z,12.61
2022-09-12T00:58:14.611Z,12.79
2022-09-12T01:03:19.397Z,12.76
2022-09-12T01:08:22.001Z,12.87
2022-09-12T01:13:24.383Z,12.92
2022-09-12T01:18:39.683Z,12.88
2022-09-12T01:24:01.661Z,12.74
2022-09-12T01:30:00.954Z,12.53
2022-09-12T01:35:16.558Z,12.52
2022-09-12T01:40:23.882Z,12.46
2022-09-12T01:45:54.291Z,12.44
2022-09-12T01:51:08.909Z,12.52
2022-09-12T01:56:17.783Z,12.47
2022-09-12T02:01:31.875Z,12.42
2022-09-12T02:06:52.294Z,12.28
2022-09-12T02:11:58.544Z,12.32
2022-09-12T02:17:07.446Z,12.44
2022-09-12T02:22:14.839Z,12.43
2022-09-12T02:27:21.657Z,12.28
2022-09-12T02:32:36.145Z,12.17
2022-09-12T02:38:03.726Z,12.01
2022-09-12T02:43:06.875Z,12.05
2022-09-12T02:48:14.992Z,11.92
2022-09-12T02:53:18.008Z,11.85
2022-09-12T02:58:26.974Z,11.89
2022-09-12T03:03:55.471Z,11.95
2022-09-12T03:09:39.584Z,11.95
2022-09-12T03:14:52.585Z,11.93
2022-09-12T03:20:03.558Z,12.01
2022-09-12T03:25:18.020Z,12.03
2022-09-12T03:30:20.530Z,12.03
2022-09-12T03:35:24.383Z,12.02
2022-09-12T03:40:25.975Z,11.90
2022-09-12T03:45:28.250Z,11.92
2022-09-12T03:50:30.395Z,11.85
2022-09-12T03:55:32.045Z,11.83
2022-09-12T04:00:33.698Z,11.73
2022-09-12T04:05:36.170Z,11.69
2022-09-12T04:10:37.834Z,11.70
2022-09-12T04:15:39.517Z,11.40
2022-09-12T04:20:41.375Z,11.32
2022-09-12T04:25:43.067Z,11.37
2022-09-12T04:30:44.740Z,11.39
2022-09-12T04:35:46.504Z,11.52
2022-09-12T04:40:48.390Z,11.61
2022-09-12T04:45:50.288Z,11.69
2022-09-12T04:50:51.959Z,11.69
2022-09-12T04:55:53.668Z,11.57
2022-09-12T05:00:55.385Z,11.72
2022-09-12T05:05:57.106Z,11.90
2022-09-12T05:11:06.830Z,11.97
2022-09-12T05:16:11.152Z,11.97
2022-09-12T05:21:18.928Z,11.93
2022-09-12T05:26:21.363Z,11.94
2022-09-12T05:31:27.923Z,11.78
2022-09-12T05:36:30.663Z,11.87
2022-09-12T05:41:33.910Z,12.33
2022-09-12T05:46:38.079Z,13.25
2022-09-12T05:51:42.985Z,13.73
2022-09-12T05:56:45.214Z,14.06
2022-09-12T06:01:47.600Z,14.29
2022-09-12T06:06:49.310Z,14.46
2022-09-12T06:11:51.867Z,14.53
2022-09-12T06:16:53.621Z,13.99
2022-09-12T06:21:55.496Z,13.52
2022-09-12T06:26:57.838Z,13.33
2022-09-12T06:31:59.725Z,13.18
2022-09-12T06:37:01.319Z,13.06
2022-09-12T06:42:03.642Z,13.02
2022-09-12T06:47:09.071Z,13.07
2022-09-12T06:52:10.706Z,13.20
2022-09-12T06:57:12.320Z,13.35
2022-09-12T07:02:14.194Z,13.46
2022-09-12T07:07:15.842Z,13.58
2022-09-12T07:12:17.476Z,13.72
2022-09-12T07:17:19.205Z,13.84
2022-09-12T07:22:20.802Z,13.93
2022-09-12T07:27:22.469Z,14.03
2022-09-12T07:32:24.142Z,14.23
2022-09-12T07:37:25.866Z,14.44
2022-09-12T07:42:27.527Z,14.56
2022-09-12T07:47:29.278Z,14.67
2022-09-12T07:52:31.256Z,14.79
2022-09-12T07:57:32.921Z,14.96
2022-09-12T08:02:35.028Z,15.15
2022-09-12T08:07:36.683Z,15.33
2022-09-12T08:12:38.593Z,15.56
2022-09-12T08:17:41.281Z,15.80
2022-09-12T08:22:43.305Z,16.05
2022-09-12T08:27:46.802Z,16.24
2022-09-12T08:32:48.695Z,16.44
2022-09-12T08:37:50.343Z,16.68
2022-09-12T08:43:41.044Z,16.92
2022-09-12T08:48:46.276Z,17.07
2022-09-12T08:53:51.796Z,17.24
2022-09-12T08:58:53.618Z,17.38
2022-09-12T09:04:43.347Z,17.53
2022-09-12T09:09:59.154Z,17.68
2022-09-12T09:15:23.620Z,17.93
2022-09-12T09:21:06.156Z,18.13
2022-09-12T09:26:22.344Z,18.36
2022-09-12T09:31:26.203Z,18.67
2022-09-12T09:36:49.784Z,18.76
2022-09-12T09:42:21.991Z,18.86
2022-09-12T09:47:23.789Z,18.87
2022-09-12T09:52:29.472Z,18.97
2022-09-12T09:57:34.058Z,19.07
2022-09-12T10:02:36.085Z,19.41
2022-09-12T10:07:38.053Z,19.70
2022-09-12T10:12:40.139Z,19.78
2022-09-12T10:17:48.062Z,19.82
2022-09-12T10:22:49.805Z,19.89
2022-09-12T10:27:58.530Z,20.20
2022-09-12T10:33:12.122Z,20.53
2022-09-12T10:38:22.661Z,20.67
2022-09-12T10:43:29.742Z,20.62
2022-09-12T10:48:32.543Z,20.72
2022-09-12T10:53:45.475Z,20.53
2022-09-12T10:59:12.076Z,20.50
2022-09-12T11:04:25.878Z,20.61
2022-09-12T11:09:39.677Z,20.77
2022-09-12T11:15:02.946Z,20.80
2022-09-12T11:20:27.831Z,21.08
2022-09-12T11:26:00.012Z,20.94
2022-09-12T11:31:19.824Z,21.19
2022-09-12T11:36:45.607Z,21.26
2022-09-12T11:41:52.536Z,21.43
2022-09-12T11:46:54.210Z,21.23
2022-09-12T11:52:11.078Z,21.34
2022-09-12T11:57:25.034Z,21.73
2022-09-12T12:02:28.933Z,21.99
2022-09-12T12:07:45.603Z,21.99
2022-09-12T12:12:48.495Z,22.27
2022-09-12T12:18:04.848Z,22.42
2022-09-12T12:23:06.555Z,22.43
2022-09-12T12:28:08.358Z,22.32
2022-09-12T12:33:16.031Z,22.48
2022-09-12T12:38:33.466Z,22.39
2022-09-12T12:43:35.263Z,22.45
2022-09-12T12:48:48.943Z,22.58
2022-09-12T12:53:52.346Z,22.67
2022-09-12T12:59:01.121Z,22.82
2022-09-12T13:04:12.250Z,23.25
2022-09-12T13:09:26.949Z,23.45
2022-09-12T13:14:34.499Z,23.39
2022-09-12T13:19:37.226Z,23.61
2022-09-12T13:24:44.663Z,23.29
2022-09-12T13:29:46.810Z,23.23
2022-09-12T13:35:12.954Z,23.22
2022-09-12T13:40:36.530Z,23.27
2022-09-12T13:45:41.711Z,23.50
2022-09-12T13:50:59.900Z,23.56
2022-09-12T13:56:01.949Z,23.44
2022-09-12T14:01:12.975Z,23.34
2022-09-12T14:06:16.310Z,23.11
2022-09-12T14:11:33.847Z,23.12
2022-09-12T14:16:40.511Z,23.33
2022-09-12T14:21:42.411Z,23.35
2022-09-12T14:26:44.874Z,23.58
2022-09-12T14:31:46.610Z,23.74
2022-09-12T14:36:54.988Z,23.71
2022-09-12T14:42:03.443Z,23.94
2022-09-12T14:47:21.154Z,24.13
2022-09-12T14:52:30.477Z,23.74
2022-09-12T14:57:40.463Z,23.36
2022-09-12T15:02:44.401Z,23.26
2022-09-12T15:07:55.521Z,23.12
2022-09-12T15:13:09.343Z,23.06
2022-09-12T15:18:12.131Z,23.00
2022-09-12T15:23:19.130Z,22.98
2022-09-12T15:28:23.483Z,23.23
2022-09-12T15:33:25.553Z,23.51
2022-09-12T15:38:27.322Z,23.81
2022-09-12T15:43:28.960Z,23.88
2022-09-12T15:48:30.962Z,24.05
2022-09-12T15:53:32.987Z,23.79
2022-09-12T15:58:34.902Z,24.10
2022-09-12T16:03:37.120Z,23.98
2022-09-12T16:08:38.773Z,23.88
2022-09-12T16:13:40.695Z,23.73
2022-09-12T16:18:42.720Z,23.52
2022-09-12T16:23:45.909Z,23.54
2022-09-12T16:28:47.965Z,23.40
2022-09-12T16:33:49.642Z,23.27
2022-09-12T16:38:53.655Z,23.18
2022-09-12T16:43:55.647Z,22.61
2022-09-12T16:48:58.595Z,22.21
2022-09-12T16:54:04.182Z,21.75
2022-09-12T16:59:06.506Z,21.34
2022-09-12T17:04:10.109Z,20.88
2022-09-12T17:09:13.079Z,20.49
2022-09-12T17:14:15.077Z,20.22
2022-09-12T17:19:22.035Z,19.87
2022-09-12T17:24:25.029Z,19.41
2022-09-12T17:29:27.361Z,18.97
2022-09-12T17:34:29.093Z,18.63
2022-09-12T17:39:30.926Z,18.35
2022-09-12T17:44:32.872Z,18.17
2022-09-12T17:49:34.958Z,17.99
2022-09-12T17:54:36.768Z,17.66
2022-09-12T17:59:38.437Z,17.53
2022-09-12T18:04:41.188Z,17.42
2022-09-12T18:09:43.322Z,17.27
2022-09-12T18:14:44.963Z,17.06
2022-09-12T18:19:52.843Z,16.78
2022-09-12T18:24:55.245Z,16.74
2022-09-12T18:30:19.702Z,16.70
2022-09-12T18:35:18.609Z,16.58
2022-09-12T18:40:20.249Z,16.46
2022-09-12T18:45:21.922Z,16.37
2022-09-12T18:50:24.577Z,16.37
2022-09-12T18:55:26.257Z,16.25
2022-09-12T19:00:28.560Z,16.16
2022-09-12T19:05:30.184Z,16.13
2022-09-12T19:10:31.857Z,15.97
2022-09-12T19:15:33.520Z,15.75
2022-09-12T19:20:36.389Z,15.63
2022-09-12T19:25:37.969Z,15.49
2022-09-12T19:30:47.144Z,15.32
2022-09-12T19:35:49.596Z,15.27
2022-09-12T19:40:59.553Z,15.21
2022-09-12T19:46:02.185Z,15.15
2022-09-12T19:51:04.570Z,15.21
2022-09-12T19:56:07.667Z,15.20
2022-09-12T20:01:11.018Z,15.16
2022-09-12T20:06:16.156Z,15.00
2022-09-12T20:11:19.822Z,14.85
2022-09-12T20:16:25.489Z,14.72
2022-09-12T20:21:31.448Z,14.61
2022-09-12T20:26:34.092Z,14.62
2022-09-12T20:31:38.468Z,14.68
2022-09-12T20:36:40.572Z,14.74
2022-09-12T20:41:42.542Z,14.76
2022-09-12T20:46:44.429Z,14.69
2022-09-12T20:51:48.330Z,14.65
2022-09-12T20:56:50.094Z,14.55
2022-09-12T21:01:52.198Z,14.47
2022-09-12T21:06:53.965Z,14.47
2022-09-12T21:11:55.666Z,14.62
2022-09-12T21:16:57.444Z,14.59
2022-09-12T21:21:59.168Z,14.52
2022-09-12T21:27:04.168Z,14.48
2022-09-12T21:32:09.026Z,14.51
2022-09-12T21:37:12.623Z,14.43
2022-09-12T21:42:14.404Z,14.47
2022-09-12T21:47:16.573Z,14.47
2022-09-12T21:52:18.243Z,14.54
2022-09-12T21:57:19.898Z,14.57
2022-09-12T22:02:23.057Z,14.66
2022-09-12T22:07:25.051Z,14.67
2022-09-12T22:12:28.123Z,14.56
2022-09-12T22:17:29.987Z,14.58
2022-09-12T22:22:50.291Z,14.60
2022-09-12T22:27:52.884Z,14.66
2022-09-12T22:32:54.635Z,14.58
2022-09-12T22:37:56.257Z,14.51
2022-09-12T22:42:57.949Z,14.38
2022-09-12T22:48:00.913Z,14.27
2022-09-12T22:53:03.040Z,14.24
2022-09-12T22:58:04.763Z,14.15
2022-09-12T23:03:06.452Z,14.17
2022-09-12T23:08:08.097Z,14.19
2022-09-12T23:13:10.739Z,14.20
2022-09-12T23:18:12.418Z,14.15
2022-09-12T23:23:14.047Z,14.14
2022-09-12T23:28:15.692Z,14.06
2022-09-12T23:33:17.649Z,14.00
2022-09-12T23:38:19.313Z,14.03
2022-09-12T23:43:21.311Z,14.10
2022-09-12T23:48:23.378Z,14.06
2022-09-12T23:53:25.713Z,14.10
2022-09-12T23:58:27.464Z,13.97
